sensor_id;sensor_type;location;lat;lon;timestamp;P1;durP1;ratioP1;P2;durP2;ratioP2
31128;SDS011;17777;48.770;8.944;2024-02-14T00:00:12;5.57;;;2.95;;
31128;SDS011;17777;48.770;8.944;2024-02-14T00:02:48;5.10;;;2.78;;
31128;SDS011;17777;48.770;8.944;2024-02-14T00:05:14;3.38;;;2.47;;
31128;SDS011;17777;48.770;8.944;2024-02-14T00:07:41;4.38;;;2.83;;
31128;SDS011;17777;48.770;8.944;2024-02-14T00:10:07;5.45;;;3.03;;
31128;SDS011;17777;48.770;8.944;2024-02-14T00:12:33;8.30;;;3.13;;
31128;SDS011;17777;48.770;8.944;2024-02-14T00:15:00;4.22;;;2.70;;
31128;SDS011;17777;48.770;8.944;2024-02-14T00:17:31;4.90;;;2.90;;
31128;SDS011;17777;48.770;8.944;2024-02-14T00:19:58;4.80;;;2.58;;
31128;SDS011;17777;48.770;8.944;2024-02-14T00:22:25;5.70;;;2.65;;
31128;SDS011;17777;48.770;8.944;2024-02-14T00:24:51;6.88;;;2.60;;
31128;SDS011;17777;48.770;8.944;2024-02-14T00:27:16;5.40;;;2.92;;
31128;SDS011;17777;48.770;8.944;2024-02-14T00:29:42;4.72;;;3.15;;
31128;SDS011;17777;48.770;8.944;2024-02-14T00:32:11;4.68;;;2.70;;
31128;SDS011;17777;48.770;8.944;2024-02-14T00:34:37;3.83;;;2.80;;
31128;SDS011;17777;48.770;8.944;2024-02-14T00:37:03;4.13;;;2.40;;
31128;SDS011;17777;48.770;8.944;2024-02-14T00:39:29;5.30;;;2.60;;
31128;SDS011;17777;48.770;8.944;2024-02-14T00:41:54;4.70;;;2.67;;
31128;SDS011;17777;48.770;8.944;2024-02-14T00:44:21;4.80;;;2.67;;
31128;SDS011;17777;48.770;8.944;2024-02-14T00:46:47;4.90;;;2.30;;
31128;SDS011;17777;48.770;8.944;2024-02-14T00:49:15;5.35;;;2.97;;
31128;SDS011;17777;48.770;8.944;2024-02-14T00:51:41;3.20;;;2.17;;
31128;SDS011;17777;48.770;8.944;2024-02-14T00:54:07;4.38;;;2.80;;
31128;SDS011;17777;48.770;8.944;2024-02-14T00:56:33;3.72;;;2.50;;
31128;SDS011;17777;48.770;8.944;2024-02-14T00:58:59;4.97;;;2.50;;
31128;SDS011;17777;48.770;8.944;2024-02-14T01:01:26;4.75;;;2.90;;
31128;SDS011;17777;48.770;8.944;2024-02-14T01:03:51;6.15;;;2.78;;
31128;SDS011;17777;48.770;8.944;2024-02-14T01:06:17;4.07;;;2.50;;
31128;SDS011;17777;48.770;8.944;2024-02-14T01:08:44;4.38;;;2.83;;
31128;SDS011;17777;48.770;8.944;2024-02-14T01:11:10;4.10;;;2.55;;
31128;SDS011;17777;48.770;8.944;2024-02-14T01:13:36;3.28;;;2.60;;
31128;SDS011;17777;48.770;8.944;2024-02-14T01:16:02;4.25;;;2.90;;
31128;SDS011;17777;48.770;8.944;2024-02-14T01:18:31;3.45;;;2.58;;
31128;SDS011;17777;48.770;8.944;2024-02-14T01:20:57;4.93;;;3.08;;
31128;SDS011;17777;48.770;8.944;2024-02-14T01:23:24;3.83;;;2.90;;
31128;SDS011;17777;48.770;8.944;2024-02-14T01:25:50;5.95;;;2.90;;
31128;SDS011;17777;48.770;8.944;2024-02-14T01:28:16;3.42;;;2.65;;
31128;SDS011;17777;48.770;8.944;2024-02-14T01:30:42;3.67;;;2.42;;
31128;SDS011;17777;48.770;8.944;2024-02-14T01:33:08;5.07;;;2.80;;
31128;SDS011;17777;48.770;8.944;2024-02-14T01:35:34;3.60;;;2.50;;
31128;SDS011;17777;48.770;8.944;2024-02-14T01:38:00;5.22;;;2.63;;
31128;SDS011;17777;48.770;8.944;2024-02-14T01:40:27;5.20;;;2.85;;
31128;SDS011;17777;48.770;8.944;2024-02-14T01:42:54;4.35;;;2.58;;
31128;SDS011;17777;48.770;8.944;2024-02-14T01:45:20;4.20;;;2.42;;
31128;SDS011;17777;48.770;8.944;2024-02-14T01:47:47;3.38;;;2.28;;
31128;SDS011;17777;48.770;8.944;2024-02-14T01:50:15;4.63;;;2.83;;
31128;SDS011;17777;48.770;8.944;2024-02-14T01:52:41;3.63;;;2.60;;
31128;SDS011;17777;48.770;8.944;2024-02-14T01:55:09;3.67;;;2.28;;
31128;SDS011;17777;48.770;8.944;2024-02-14T01:57:37;3.58;;;2.22;;
31128;SDS011;17777;48.770;8.944;2024-02-14T02:00:05;5.25;;;2.67;;
31128;SDS011;17777;48.770;8.944;2024-02-14T02:02:40;5.65;;;2.40;;
31128;SDS011;17777;48.770;8.944;2024-02-14T02:05:11;4.85;;;2.78;;
31128;SDS011;17777;48.770;8.944;2024-02-14T02:07:38;6.85;;;2.15;;
31128;SDS011;17777;48.770;8.944;2024-02-14T02:10:08;3.08;;;2.25;;
31128;SDS011;17777;48.770;8.944;2024-02-14T02:12:36;3.72;;;2.47;;
31128;SDS011;17777;48.770;8.944;2024-02-14T02:15:04;6.10;;;2.55;;
31128;SDS011;17777;48.770;8.944;2024-02-14T02:17:31;3.80;;;2.42;;
31128;SDS011;17777;48.770;8.944;2024-02-14T02:20:01;3.75;;;2.40;;
31128;SDS011;17777;48.770;8.944;2024-02-14T02:22:27;5.70;;;2.33;;
31128;SDS011;17777;48.770;8.944;2024-02-14T02:24:57;6.15;;;2.40;;
31128;SDS011;17777;48.770;8.944;2024-02-14T02:27:23;3.45;;;2.53;;
31128;SDS011;17777;48.770;8.944;2024-02-14T02:29:49;3.90;;;2.00;;
31128;SDS011;17777;48.770;8.944;2024-02-14T02:32:15;4.28;;;2.60;;
31128;SDS011;17777;48.770;8.944;2024-02-14T02:34:43;3.08;;;2.28;;
31128;SDS011;17777;48.770;8.944;2024-02-14T02:37:10;4.57;;;2.15;;
31128;SDS011;17777;48.770;8.944;2024-02-14T02:39:36;3.58;;;2.40;;
31128;SDS011;17777;48.770;8.944;2024-02-14T02:42:02;2.45;;;2.10;;
31128;SDS011;17777;48.770;8.944;2024-02-14T02:44:28;2.83;;;2.00;;
31128;SDS011;17777;48.770;8.944;2024-02-14T02:46:54;3.58;;;2.13;;
31128;SDS011;17777;48.770;8.944;2024-02-14T02:49:21;3.28;;;2.25;;
31128;SDS011;17777;48.770;8.944;2024-02-14T02:51:46;4.82;;;2.20;;
31128;SDS011;17777;48.770;8.944;2024-02-14T02:54:13;5.05;;;2.22;;
31128;SDS011;17777;48.770;8.944;2024-02-14T02:56:39;3.35;;;2.20;;
31128;SDS011;17777;48.770;8.944;2024-02-14T02:59:06;2.70;;;1.98;;
31128;SDS011;17777;48.770;8.944;2024-02-14T03:01:35;3.72;;;2.03;;
31128;SDS011;17777;48.770;8.944;2024-02-14T03:04:01;4.45;;;2.17;;
31128;SDS011;17777;48.770;8.944;2024-02-14T03:06:28;3.65;;;2.20;;
31128;SDS011;17777;48.770;8.944;2024-02-14T03:08:53;3.85;;;2.30;;
31128;SDS011;17777;48.770;8.944;2024-02-14T03:11:21;4.07;;;2.45;;
31128;SDS011;17777;48.770;8.944;2024-02-14T03:13:47;3.28;;;1.98;;
31128;SDS011;17777;48.770;8.944;2024-02-14T03:16:14;4.95;;;2.22;;
31128;SDS011;17777;48.770;8.944;2024-02-14T03:18:42;4.78;;;2.28;;
31128;SDS011;17777;48.770;8.944;2024-02-14T03:21:09;4.47;;;2.58;;
31128;SDS011;17777;48.770;8.944;2024-02-14T03:23:36;2.40;;;2.15;;
31128;SDS011;17777;48.770;8.944;2024-02-14T03:26:02;4.30;;;2.58;;
31128;SDS011;17777;48.770;8.944;2024-02-14T03:28:32;3.65;;;2.80;;
31128;SDS011;17777;48.770;8.944;2024-02-14T03:30:58;4.20;;;2.88;;
31128;SDS011;17777;48.770;8.944;2024-02-14T03:33:24;5.65;;;2.88;;
31128;SDS011;17777;48.770;8.944;2024-02-14T03:35:50;2.70;;;2.10;;
31128;SDS011;17777;48.770;8.944;2024-02-14T03:38:28;4.93;;;2.50;;
31128;SDS011;17777;48.770;8.944;2024-02-14T03:40:56;4.10;;;2.03;;
31128;SDS011;17777;48.770;8.944;2024-02-14T03:43:22;3.00;;;2.10;;
31128;SDS011;17777;48.770;8.944;2024-02-14T03:45:49;3.75;;;2.47;;
31128;SDS011;17777;48.770;8.944;2024-02-14T03:48:15;4.18;;;2.22;;
31128;SDS011;17777;48.770;8.944;2024-02-14T03:50:42;3.00;;;2.13;;
31128;SDS011;17777;48.770;8.944;2024-02-14T03:53:08;3.60;;;2.30;;
31128;SDS011;17777;48.770;8.944;2024-02-14T03:55:36;3.30;;;2.33;;
31128;SDS011;17777;48.770;8.944;2024-02-14T03:58:02;2.95;;;1.75;;
31128;SDS011;17777;48.770;8.944;2024-02-14T04:00:30;4.07;;;1.90;;
31128;SDS011;17777;48.770;8.944;2024-02-14T04:02:56;3.80;;;2.10;;
31128;SDS011;17777;48.770;8.944;2024-02-14T04:05:27;7.43;;;1.73;;
31128;SDS011;17777;48.770;8.944;2024-02-14T04:07:54;3.83;;;1.45;;
31128;SDS011;17777;48.770;8.944;2024-02-14T04:10:20;3.33;;;2.03;;
31128;SDS011;17777;48.770;8.944;2024-02-14T04:12:47;3.40;;;1.90;;
31128;SDS011;17777;48.770;8.944;2024-02-14T04:15:13;4.25;;;1.90;;
31128;SDS011;17777;48.770;8.944;2024-02-14T04:17:39;3.15;;;1.80;;
31128;SDS011;17777;48.770;8.944;2024-02-14T04:20:05;2.83;;;1.65;;
31128;SDS011;17777;48.770;8.944;2024-02-14T04:22:32;2.50;;;1.80;;
31128;SDS011;17777;48.770;8.944;2024-02-14T04:24:58;2.75;;;1.92;;
31128;SDS011;17777;48.770;8.944;2024-02-14T04:27:23;5.22;;;1.80;;
31128;SDS011;17777;48.770;8.944;2024-02-14T04:29:49;2.72;;;1.80;;
31128;SDS011;17777;48.770;8.944;2024-02-14T04:32:15;3.72;;;1.95;;
31128;SDS011;17777;48.770;8.944;2024-02-14T04:34:40;3.28;;;1.63;;
31128;SDS011;17777;48.770;8.944;2024-02-14T04:37:08;4.03;;;1.80;;
31128;SDS011;17777;48.770;8.944;2024-02-14T04:39:37;6.97;;;2.15;;
31128;SDS011;17777;48.770;8.944;2024-02-14T04:42:04;4.60;;;2.38;;
31128;SDS011;17777;48.770;8.944;2024-02-14T04:44:30;3.85;;;1.90;;
31128;SDS011;17777;48.770;8.944;2024-02-14T04:46:57;3.08;;;1.77;;
31128;SDS011;17777;48.770;8.944;2024-02-14T04:49:26;3.15;;;1.83;;
31128;SDS011;17777;48.770;8.944;2024-02-14T04:51:54;3.72;;;2.40;;
31128;SDS011;17777;48.770;8.944;2024-02-14T04:54:20;3.03;;;1.95;;
31128;SDS011;17777;48.770;8.944;2024-02-14T04:56:46;6.43;;;2.45;;
31128;SDS011;17777;48.770;8.944;2024-02-14T04:59:12;3.63;;;2.00;;
31128;SDS011;17777;48.770;8.944;2024-02-14T05:01:38;3.47;;;1.90;;
31128;SDS011;17777;48.770;8.944;2024-02-14T05:04:07;3.85;;;1.98;;
31128;SDS011;17777;48.770;8.944;2024-02-14T05:06:33;3.17;;;1.98;;
31128;SDS011;17777;48.770;8.944;2024-02-14T05:08:59;2.30;;;1.55;;
31128;SDS011;17777;48.770;8.944;2024-02-14T05:11:25;4.22;;;1.70;;
31128;SDS011;17777;48.770;8.944;2024-02-14T05:13:50;2.15;;;1.63;;
31128;SDS011;17777;48.770;8.944;2024-02-14T05:16:19;2.30;;;1.75;;
31128;SDS011;17777;48.770;8.944;2024-02-14T05:18:45;2.95;;;1.55;;
31128;SDS011;17777;48.770;8.944;2024-02-14T05:21:11;3.90;;;1.50;;
31128;SDS011;17777;48.770;8.944;2024-02-14T05:23:37;2.30;;;1.45;;
31128;SDS011;17777;48.770;8.944;2024-02-14T05:26:03;3.58;;;1.77;;
31128;SDS011;17777;48.770;8.944;2024-02-14T05:28:29;4.05;;;2.00;;
31128;SDS011;17777;48.770;8.944;2024-02-14T05:31:01;2.42;;;1.70;;
31128;SDS011;17777;48.770;8.944;2024-02-14T05:33:28;2.47;;;1.50;;
31128;SDS011;17777;48.770;8.944;2024-02-14T05:35:53;4.13;;;1.90;;
31128;SDS011;17777;48.770;8.944;2024-02-14T05:38:19;2.75;;;1.50;;
31128;SDS011;17777;48.770;8.944;2024-02-14T05:40:46;3.85;;;1.70;;
31128;SDS011;17777;48.770;8.944;2024-02-14T05:43:14;2.60;;;1.65;;
31128;SDS011;17777;48.770;8.944;2024-02-14T05:45:40;3.20;;;1.58;;
31128;SDS011;17777;48.770;8.944;2024-02-14T05:48:06;2.05;;;1.40;;
31128;SDS011;17777;48.770;8.944;2024-02-14T05:50:33;2.75;;;1.48;;
31128;SDS011;17777;48.770;8.944;2024-02-14T05:52:59;3.50;;;1.40;;
31128;SDS011;17777;48.770;8.944;2024-02-14T05:55:26;2.45;;;1.20;;
31128;SDS011;17777;48.770;8.944;2024-02-14T05:57:52;2.97;;;1.60;;
31128;SDS011;17777;48.770;8.944;2024-02-14T06:00:21;2.22;;;1.42;;
31128;SDS011;17777;48.770;8.944;2024-02-14T06:02:47;3.63;;;1.30;;
31128;SDS011;17777;48.770;8.944;2024-02-14T06:05:13;1.70;;;1.17;;
31128;SDS011;17777;48.770;8.944;2024-02-14T06:07:40;2.13;;;1.40;;
31128;SDS011;17777;48.770;8.944;2024-02-14T06:10:07;1.50;;;1.20;;
31128;SDS011;17777;48.770;8.944;2024-02-14T06:12:34;2.63;;;1.00;;
31128;SDS011;17777;48.770;8.944;2024-02-14T06:15:00;1.80;;;1.00;;
31128;SDS011;17777;48.770;8.944;2024-02-14T06:17:26;1.58;;;1.00;;
31128;SDS011;17777;48.770;8.944;2024-02-14T06:19:53;3.88;;;1.50;;
31128;SDS011;17777;48.770;8.944;2024-02-14T06:22:19;2.20;;;1.40;;
31128;SDS011;17777;48.770;8.944;2024-02-14T06:24:45;1.98;;;1.05;;
31128;SDS011;17777;48.770;8.944;2024-02-14T06:27:13;7.63;;;1.45;;
31128;SDS011;17777;48.770;8.944;2024-02-14T06:29:43;1.85;;;1.20;;
31128;SDS011;17777;48.770;8.944;2024-02-14T06:32:09;3.63;;;1.00;;
31128;SDS011;17777;48.770;8.944;2024-02-14T06:34:37;3.08;;;1.40;;
31128;SDS011;17777;48.770;8.944;2024-02-14T06:37:03;1.52;;;1.10;;
31128;SDS011;17777;48.770;8.944;2024-02-14T06:39:29;3.53;;;1.25;;
31128;SDS011;17777;48.770;8.944;2024-02-14T06:41:55;1.73;;;0.98;;
31128;SDS011;17777;48.770;8.944;2024-02-14T06:44:22;2.60;;;1.30;;
31128;SDS011;17777;48.770;8.944;2024-02-14T06:46:49;2.22;;;1.17;;
31128;SDS011;17777;48.770;8.944;2024-02-14T06:49:18;2.72;;;1.10;;
31128;SDS011;17777;48.770;8.944;2024-02-14T06:51:44;2.10;;;1.38;;
31128;SDS011;17777;48.770;8.944;2024-02-14T06:54:10;2.35;;;1.20;;
31128;SDS011;17777;48.770;8.944;2024-02-14T06:56:37;2.35;;;1.10;;
31128;SDS011;17777;48.770;8.944;2024-02-14T06:59:03;3.50;;;1.08;;
31128;SDS011;17777;48.770;8.944;2024-02-14T07:01:29;2.78;;;1.05;;
31128;SDS011;17777;48.770;8.944;2024-02-14T07:03:56;2.15;;;1.02;;
31128;SDS011;17777;48.770;8.944;2024-02-14T07:06:23;1.77;;;1.30;;
31128;SDS011;17777;48.770;8.944;2024-02-14T07:08:48;2.25;;;0.90;;
31128;SDS011;17777;48.770;8.944;2024-02-14T07:11:15;1.40;;;0.98;;
31128;SDS011;17777;48.770;8.944;2024-02-14T07:13:41;3.60;;;1.45;;
31128;SDS011;17777;48.770;8.944;2024-02-14T07:16:07;1.75;;;1.00;;
31128;SDS011;17777;48.770;8.944;2024-02-14T07:18:36;2.10;;;1.23;;
31128;SDS011;17777;48.770;8.944;2024-02-14T07:21:01;2.08;;;1.17;;
31128;SDS011;17777;48.770;8.944;2024-02-14T07:23:31;2.63;;;1.08;;
31128;SDS011;17777;48.770;8.944;2024-02-14T07:25:58;2.38;;;1.55;;
31128;SDS011;17777;48.770;8.944;2024-02-14T07:28:26;2.55;;;1.20;;
31128;SDS011;17777;48.770;8.944;2024-02-14T07:30:51;3.50;;;1.38;;
31128;SDS011;17777;48.770;8.944;2024-02-14T07:33:17;2.55;;;1.08;;
31128;SDS011;17777;48.770;8.944;2024-02-14T07:35:43;4.35;;;1.35;;
31128;SDS011;17777;48.770;8.944;2024-02-14T07:38:09;2.38;;;1.23;;
31128;SDS011;17777;48.770;8.944;2024-02-14T07:40:35;2.28;;;1.48;;
31128;SDS011;17777;48.770;8.944;2024-02-14T07:43:00;3.00;;;1.33;;
31128;SDS011;17777;48.770;8.944;2024-02-14T07:45:27;4.07;;;1.20;;
31128;SDS011;17777;48.770;8.944;2024-02-14T07:47:53;6.60;;;1.30;;
31128;SDS011;17777;48.770;8.944;2024-02-14T07:50:19;1.80;;;1.00;;
31128;SDS011;17777;48.770;8.944;2024-02-14T07:52:45;2.17;;;1.10;;
31128;SDS011;17777;48.770;8.944;2024-02-14T07:55:12;1.85;;;1.10;;
31128;SDS011;17777;48.770;8.944;2024-02-14T07:57:38;1.48;;;1.10;;
31128;SDS011;17777;48.770;8.944;2024-02-14T08:00:05;1.92;;;1.20;;
31128;SDS011;17777;48.770;8.944;2024-02-14T08:02:33;2.85;;;1.08;;
31128;SDS011;17777;48.770;8.944;2024-02-14T08:05:00;2.80;;;1.17;;
31128;SDS011;17777;48.770;8.944;2024-02-14T08:07:26;2.75;;;1.30;;
31128;SDS011;17777;48.770;8.944;2024-02-14T08:09:52;3.38;;;1.35;;
31128;SDS011;17777;48.770;8.944;2024-02-14T08:12:19;4.95;;;1.13;;
31128;SDS011;17777;48.770;8.944;2024-02-14T08:14:45;2.55;;;1.10;;
31128;SDS011;17777;48.770;8.944;2024-02-14T08:17:12;3.80;;;1.13;;
31128;SDS011;17777;48.770;8.944;2024-02-14T08:19:38;1.67;;;0.90;;
31128;SDS011;17777;48.770;8.944;2024-02-14T08:22:04;3.28;;;0.90;;
31128;SDS011;17777;48.770;8.944;2024-02-14T08:24:32;1.70;;;0.98;;
31128;SDS011;17777;48.770;8.944;2024-02-14T08:26:57;2.25;;;0.90;;
31128;SDS011;17777;48.770;8.944;2024-02-14T08:29:23;2.17;;;0.70;;
31128;SDS011;17777;48.770;8.944;2024-02-14T08:31:49;2.10;;;0.75;;
31128;SDS011;17777;48.770;8.944;2024-02-14T08:34:15;2.25;;;1.17;;
31128;SDS011;17777;48.770;8.944;2024-02-14T08:36:41;2.70;;;0.90;;
31128;SDS011;17777;48.770;8.944;2024-02-14T08:39:07;1.55;;;0.90;;
31128;SDS011;17777;48.770;8.944;2024-02-14T08:41:37;2.13;;;0.90;;
31128;SDS011;17777;48.770;8.944;2024-02-14T08:44:05;1.15;;;0.80;;
31128;SDS011;17777;48.770;8.944;2024-02-14T08:46:31;2.22;;;1.00;;
31128;SDS011;17777;48.770;8.944;2024-02-14T08:48:57;2.55;;;0.90;;
31128;SDS011;17777;48.770;8.944;2024-02-14T08:51:27;2.47;;;0.85;;
31128;SDS011;17777;48.770;8.944;2024-02-14T08:53:53;1.33;;;0.70;;
31128;SDS011;17777;48.770;8.944;2024-02-14T08:56:22;1.33;;;0.90;;
31128;SDS011;17777;48.770;8.944;2024-02-14T08:58:48;2.38;;;1.10;;
31128;SDS011;17777;48.770;8.944;2024-02-14T09:01:14;1.30;;;0.80;;
31128;SDS011;17777;48.770;8.944;2024-02-14T09:03:41;0.90;;;0.80;;
31128;SDS011;17777;48.770;8.944;2024-02-14T09:06:12;3.53;;;0.90;;
31128;SDS011;17777;48.770;8.944;2024-02-14T09:08:43;1.85;;;0.90;;
31128;SDS011;17777;48.770;8.944;2024-02-14T09:11:09;2.15;;;0.93;;
31128;SDS011;17777;48.770;8.944;2024-02-14T09:13:35;2.33;;;1.17;;
31128;SDS011;17777;48.770;8.944;2024-02-14T09:16:01;1.80;;;1.10;;
31128;SDS011;17777;48.770;8.944;2024-02-14T09:18:27;4.30;;;1.15;;
31128;SDS011;17777;48.770;8.944;2024-02-14T09:20:54;1.67;;;0.80;;
31128;SDS011;17777;48.770;8.944;2024-02-14T09:23:21;1.30;;;0.90;;
31128;SDS011;17777;48.770;8.944;2024-02-14T09:25:48;0.75;;;0.65;;
31128;SDS011;17777;48.770;8.944;2024-02-14T09:28:17;1.73;;;0.85;;
31128;SDS011;17777;48.770;8.944;2024-02-14T09:30:44;2.70;;;0.85;;
31128;SDS011;17777;48.770;8.944;2024-02-14T09:33:10;1.33;;;0.90;;
31128;SDS011;17777;48.770;8.944;2024-02-14T09:35:37;1.20;;;0.88;;
31128;SDS011;17777;48.770;8.944;2024-02-14T09:38:09;1.48;;;0.90;;
31128;SDS011;17777;48.770;8.944;2024-02-14T09:40:40;1.23;;;0.90;;
31128;SDS011;17777;48.770;8.944;2024-02-14T09:43:09;1.85;;;1.00;;
31128;SDS011;17777;48.770;8.944;2024-02-14T09:45:57;3.80;;;1.20;;
31128;SDS011;17777;48.770;8.944;2024-02-14T09:48:23;2.22;;;1.20;;
31128;SDS011;17777;48.770;8.944;2024-02-14T09:50:51;1.98;;;0.95;;
31128;SDS011;17777;48.770;8.944;2024-02-14T09:53:19;2.42;;;0.88;;
31128;SDS011;17777;48.770;8.944;2024-02-14T09:55:45;5.38;;;0.80;;
31128;SDS011;17777;48.770;8.944;2024-02-14T09:58:11;3.38;;;1.20;;
31128;SDS011;17777;48.770;8.944;2024-02-14T10:00:38;5.88;;;1.27;;
31128;SDS011;17777;48.770;8.944;2024-02-14T10:03:05;3.40;;;1.40;;
31128;SDS011;17777;48.770;8.944;2024-02-14T10:05:31;3.20;;;1.15;;
31128;SDS011;17777;48.770;8.944;2024-02-14T10:07:57;5.32;;;1.25;;
31128;SDS011;17777;48.770;8.944;2024-02-14T10:10:23;1.13;;;0.88;;
31128;SDS011;17777;48.770;8.944;2024-02-14T10:12:50;2.38;;;0.95;;
31128;SDS011;17777;48.770;8.944;2024-02-14T10:15:19;2.05;;;0.75;;
31128;SDS011;17777;48.770;8.944;2024-02-14T10:17:45;1.27;;;1.13;;
31128;SDS011;17777;48.770;8.944;2024-02-14T10:20:11;1.63;;;0.80;;
31128;SDS011;17777;48.770;8.944;2024-02-14T10:22:42;1.77;;;1.08;;
31128;SDS011;17777;48.770;8.944;2024-02-14T10:25:09;1.23;;;0.70;;
31128;SDS011;17777;48.770;8.944;2024-02-14T10:27:36;1.90;;;0.80;;
31128;SDS011;17777;48.770;8.944;2024-02-14T10:30:04;1.60;;;0.80;;
31128;SDS011;17777;48.770;8.944;2024-02-14T10:32:35;3.22;;;1.23;;
31128;SDS011;17777;48.770;8.944;2024-02-14T10:35:05;2.05;;;0.60;;
31128;SDS011;17777;48.770;8.944;2024-02-14T10:37:34;3.05;;;0.80;;
31128;SDS011;17777;48.770;8.944;2024-02-14T10:40:03;1.55;;;0.60;;
31128;SDS011;17777;48.770;8.944;2024-02-14T10:42:30;1.65;;;0.90;;
31128;SDS011;17777;48.770;8.944;2024-02-14T10:44:56;1.67;;;0.80;;
31128;SDS011;17777;48.770;8.944;2024-02-14T10:47:24;1.75;;;0.80;;
31128;SDS011;17777;48.770;8.944;2024-02-14T10:49:57;1.48;;;0.70;;
31128;SDS011;17777;48.770;8.944;2024-02-14T10:52:32;1.77;;;0.60;;
31128;SDS011;17777;48.770;8.944;2024-02-14T10:55:03;2.85;;;0.50;;
31128;SDS011;17777;48.770;8.944;2024-02-14T10:57:30;0.75;;;0.55;;
31128;SDS011;17777;48.770;8.944;2024-02-14T11:00:01;0.98;;;0.50;;
31128;SDS011;17777;48.770;8.944;2024-02-14T11:02:31;0.57;;;0.43;;
31128;SDS011;17777;48.770;8.944;2024-02-14T11:04:58;0.45;;;0.40;;
31128;SDS011;17777;48.770;8.944;2024-02-14T11:07:27;3.00;;;0.50;;
31128;SDS011;17777;48.770;8.944;2024-02-14T11:10:06;0.50;;;0.30;;
31128;SDS011;17777;48.770;8.944;2024-02-14T11:12:36;1.65;;;0.60;;
31128;SDS011;17777;48.770;8.944;2024-02-14T11:15:20;1.08;;;0.57;;
31128;SDS011;17777;48.770;8.944;2024-02-14T11:17:47;1.15;;;0.40;;
31128;SDS011;17777;48.770;8.944;2024-02-14T11:22:57;0.70;;;0.50;;
31128;SDS011;17777;48.770;8.944;2024-02-14T11:25:32;1.15;;;0.60;;
31128;SDS011;17777;48.770;8.944;2024-02-14T11:27:59;0.98;;;0.68;;
31128;SDS011;17777;48.770;8.944;2024-02-14T11:30:30;3.70;;;0.57;;
31128;SDS011;17777;48.770;8.944;2024-02-14T11:33:10;1.02;;;0.45;;
31128;SDS011;17777;48.770;8.944;2024-02-14T11:35:46;0.93;;;0.73;;
31128;SDS011;17777;48.770;8.944;2024-02-14T11:38:24;1.00;;;0.43;;
31128;SDS011;17777;48.770;8.944;2024-02-14T11:40:51;1.40;;;0.55;;
31128;SDS011;17777;48.770;8.944;2024-02-14T11:43:22;1.50;;;0.50;;
31128;SDS011;17777;48.770;8.944;2024-02-14T11:45:50;0.95;;;0.50;;
31128;SDS011;17777;48.770;8.944;2024-02-14T11:48:17;1.08;;;0.45;;
31128;SDS011;17777;48.770;8.944;2024-02-14T11:50:48;0.68;;;0.45;;
31128;SDS011;17777;48.770;8.944;2024-02-14T11:53:17;1.10;;;0.55;;
31128;SDS011;17777;48.770;8.944;2024-02-14T11:55:44;1.17;;;0.50;;
31128;SDS011;17777;48.770;8.944;2024-02-14T11:58:14;1.30;;;0.60;;
31128;SDS011;17777;48.770;8.944;2024-02-14T12:00:42;0.88;;;0.57;;
31128;SDS011;17777;48.770;8.944;2024-02-14T12:03:19;0.80;;;0.50;;
31128;SDS011;17777;48.770;8.944;2024-02-14T12:05:48;1.15;;;0.50;;
31128;SDS011;17777;48.770;8.944;2024-02-14T12:08:16;0.50;;;0.40;;
31128;SDS011;17777;48.770;8.944;2024-02-14T12:10:43;1.85;;;0.60;;
31128;SDS011;17777;48.770;8.944;2024-02-14T12:13:15;1.05;;;0.60;;
31128;SDS011;17777;48.770;8.944;2024-02-14T12:15:46;0.45;;;0.40;;
31128;SDS011;17777;48.770;8.944;2024-02-14T12:18:13;0.57;;;0.55;;
31128;SDS011;17777;48.770;8.944;2024-02-14T12:20:41;0.88;;;0.55;;
31128;SDS011;17777;48.770;8.944;2024-02-14T12:23:13;0.88;;;0.40;;
31128;SDS011;17777;48.770;8.944;2024-02-14T12:25:43;0.32;;;0.32;;
31128;SDS011;17777;48.770;8.944;2024-02-14T12:28:16;0.70;;;0.52;;
31128;SDS011;17777;48.770;8.944;2024-02-14T12:30:43;0.90;;;0.40;;
31128;SDS011;17777;48.770;8.944;2024-02-14T12:33:15;0.60;;;0.50;;
31128;SDS011;17777;48.770;8.944;2024-02-14T12:35:45;0.50;;;0.40;;
31128;SDS011;17777;48.770;8.944;2024-02-14T12:38:13;0.73;;;0.40;;
31128;SDS011;17777;48.770;8.944;2024-02-14T12:40:41;1.70;;;0.30;;
31128;SDS011;17777;48.770;8.944;2024-02-14T12:43:08;0.40;;;0.40;;
31128;SDS011;17777;48.770;8.944;2024-02-14T12:45:35;0.75;;;0.45;;
31128;SDS011;17777;48.770;8.944;2024-02-14T12:48:03;0.45;;;0.32;;
31128;SDS011;17777;48.770;8.944;2024-02-14T12:50:35;0.80;;;0.40;;
31128;SDS011;17777;48.770;8.944;2024-02-14T12:53:09;0.73;;;0.40;;
31128;SDS011;17777;48.770;8.944;2024-02-14T12:55:35;0.47;;;0.20;;
31128;SDS011;17777;48.770;8.944;2024-02-14T12:58:01;0.30;;;0.30;;
31128;SDS011;17777;48.770;8.944;2024-02-14T13:00:28;0.65;;;0.30;;
31128;SDS011;17777;48.770;8.944;2024-02-14T13:02:57;0.32;;;0.32;;
31128;SDS011;17777;48.770;8.944;2024-02-14T13:05:23;0.30;;;0.30;;
31128;SDS011;17777;48.770;8.944;2024-02-14T13:07:50;0.13;;;0.13;;
31128;SDS011;17777;48.770;8.944;2024-02-14T13:10:16;0.40;;;0.30;;
31128;SDS011;17777;48.770;8.944;2024-02-14T13:12:43;0.45;;;0.30;;
31128;SDS011;17777;48.770;8.944;2024-02-14T13:15:10;0.60;;;0.38;;
31128;SDS011;17777;48.770;8.944;2024-02-14T13:17:36;0.52;;;0.30;;
31128;SDS011;17777;48.770;8.944;2024-02-14T13:20:02;0.30;;;0.30;;
31128;SDS011;17777;48.770;8.944;2024-02-14T13:22:29;0.28;;;0.28;;
31128;SDS011;17777;48.770;8.944;2024-02-14T13:24:54;0.32;;;0.20;;
31128;SDS011;17777;48.770;8.944;2024-02-14T13:27:21;0.40;;;0.40;;
31128;SDS011;17777;48.770;8.944;2024-02-14T13:29:48;0.30;;;0.30;;
31128;SDS011;17777;48.770;8.944;2024-02-14T13:32:14;0.35;;;0.10;;
31128;SDS011;17777;48.770;8.944;2024-02-14T13:34:40;0.20;;;0.20;;
31128;SDS011;17777;48.770;8.944;2024-02-14T13:37:06;0.28;;;0.22;;
31128;SDS011;17777;48.770;8.944;2024-02-14T13:39:34;0.30;;;0.30;;
31128;SDS011;17777;48.770;8.944;2024-02-14T13:42:00;0.25;;;0.20;;
31128;SDS011;17777;48.770;8.944;2024-02-14T13:44:26;0.40;;;0.30;;
31128;SDS011;17777;48.770;8.944;2024-02-14T13:46:52;0.30;;;0.30;;
31128;SDS011;17777;48.770;8.944;2024-02-14T13:49:19;0.20;;;0.20;;
31128;SDS011;17777;48.770;8.944;2024-02-14T13:51:48;0.25;;;0.20;;
31128;SDS011;17777;48.770;8.944;2024-02-14T13:54:16;0.47;;;0.30;;
31128;SDS011;17777;48.770;8.944;2024-02-14T13:56:43;0.22;;;0.20;;
31128;SDS011;17777;48.770;8.944;2024-02-14T13:59:10;3.67;;;0.60;;
31128;SDS011;17777;48.770;8.944;2024-02-14T14:01:36;0.30;;;0.30;;
31128;SDS011;17777;48.770;8.944;2024-02-14T14:04:02;0.40;;;0.20;;
31128;SDS011;17777;48.770;8.944;2024-02-14T14:06:29;0.60;;;0.40;;
31128;SDS011;17777;48.770;8.944;2024-02-14T14:08:55;0.40;;;0.30;;
31128;SDS011;17777;48.770;8.944;2024-02-14T14:11:21;0.85;;;0.40;;
31128;SDS011;17777;48.770;8.944;2024-02-14T14:13:47;0.20;;;0.20;;
31128;SDS011;17777;48.770;8.944;2024-02-14T14:16:13;0.22;;;0.22;;
31128;SDS011;17777;48.770;8.944;2024-02-14T14:18:39;0.40;;;0.40;;
31128;SDS011;17777;48.770;8.944;2024-02-14T14:21:05;0.60;;;0.40;;
31128;SDS011;17777;48.770;8.944;2024-02-14T14:23:31;0.47;;;0.30;;
31128;SDS011;17777;48.770;8.944;2024-02-14T14:25:58;0.77;;;0.30;;
31128;SDS011;17777;48.770;8.944;2024-02-14T14:28:25;0.73;;;0.30;;
31128;SDS011;17777;48.770;8.944;2024-02-14T14:30:52;0.20;;;0.20;;
31128;SDS011;17777;48.770;8.944;2024-02-14T14:33:21;0.88;;;0.32;;
31128;SDS011;17777;48.770;8.944;2024-02-14T14:35:47;0.20;;;0.20;;
31128;SDS011;17777;48.770;8.944;2024-02-14T14:38:20;0.45;;;0.35;;
31128;SDS011;17777;48.770;8.944;2024-02-14T14:40:47;0.50;;;0.50;;
31128;SDS011;17777;48.770;8.944;2024-02-14T14:43:13;0.43;;;0.43;;
31128;SDS011;17777;48.770;8.944;2024-02-14T14:45:41;0.40;;;0.38;;
31128;SDS011;17777;48.770;8.944;2024-02-14T14:48:07;0.60;;;0.50;;
31128;SDS011;17777;48.770;8.944;2024-02-14T14:50:36;1.13;;;0.50;;